Time;durP1;ratioP1;P1;durP2;ratioP2;P2;SDS_P1;SDS_P2;PMS_P1;PMS_P2;Temp;Humidity;BMP_temperature;BMP_pressure;BME280_temperature;BME280_humidity;BME280_pressure;Samples;Min_cycle;Max_cycle;Signal;HPM_P1;HPM_P2
2022/10/11 00:00:44;;;;;;;8.13;4.10;;;18.20;99.90;;;;;;5033781;28;20049;-69
2022/10/11 00:03:13;;;;;;;10.20;4.72;;;18.20;99.90;;;;;;5056740;28;20045;-71
2022/10/11 00:05:42;;;;;;;9.23;4.22;;;18.20;99.90;;;;;;5043472;28;20441;-73
2022/10/11 00:08:11;;;;;;;8.52;4.88;;;18.20;99.90;;;;;;5042987;28;20056;-70
2022/10/11 00:10:39;;;;;;;12.95;6.78;;;18.20;99.90;;;;;;5022273;28;20045;-75
2022/10/11 00:13:07;;;;;;;8.82;4.68;;;18.20;99.90;;;;;;5022236;28;20056;-72
2022/10/11 00:15:35;;;;;;;15.20;4.38;;;18.20;99.90;;;;;;5040702;28;20045;-70
2022/10/11 00:18:02;;;;;;;14.45;5.03;;;18.20;99.90;;;;;;5022868;28;20111;-70
2022/10/11 00:20:31;;;;;;;18.23;5.45;;;18.20;99.90;;;;;;5017656;28;20140;-71
2022/10/11 00:22:59;;;;;;;9.18;4.90;;;18.20;99.90;;;;;;5032353;28;20463;-81
2022/10/11 00:25:29;;;;;;;12.40;5.03;;;18.20;99.90;;;;;;4994153;28;20069;-73
2022/10/11 00:27:57;;;;;;;12.65;3.95;;;18.20;99.90;;;;;;4989069;28;20054;-70
2022/10/11 00:30:25;;;;;;;12.93;4.97;;;18.20;99.90;;;;;;5021754;28;20084;-70
2022/10/11 00:32:52;;;;;;;11.32;4.90;;;18.30;99.90;;;;;;5032786;28;20051;-72
2022/10/11 00:35:20;;;;;;;6.03;4.05;;;18.30;99.90;;;;;;5007348;28;20113;-70
2022/10/11 00:37:48;;;;;;;5.68;3.65;;;18.30;99.90;;;;;;5013955;28;20059;-71
2022/10/11 00:40:18;;;;;;;10.27;5.43;;;18.30;99.90;;;;;;5007534;28;20075;-70
2022/10/11 00:42:46;;;;;;;12.20;5.82;;;18.40;99.90;;;;;;5031419;28;20442;-70
2022/10/11 00:45:26;;;;;;;7.22;4.28;;;18.40;99.90;;;;;;5045961;28;20034;-72
2022/10/11 00:47:55;;;;;;;12.98;6.13;;;18.40;99.90;;;;;;4994491;28;20045;-72
2022/10/11 00:50:26;;;;;;;8.20;4.80;;;18.50;99.90;;;;;;5016585;28;20512;-71
2022/10/11 00:52:58;;;;;;;9.95;5.10;;;18.40;99.90;;;;;;5050337;28;20040;-75
2022/10/11 00:55:31;;;;;;;9.95;4.80;;;18.40;99.90;;;;;;5016894;28;20131;-73
2022/10/11 00:57:59;;;;;;;16.40;5.70;;;18.40;99.90;;;;;;5032868;28;20415;-70
2022/10/11 01:00:27;;;;;;;9.90;5.78;;;18.50;99.90;;;;;;5034941;28;20100;-73
2022/10/11 01:02:55;;;;;;;12.63;5.38;;;18.50;99.90;;;;;;5034663;28;20059;-70
2022/10/11 01:05:23;;;;;;;13.82;6.95;;;18.40;99.90;;;;;;5017322;28;20068;-68
2022/10/11 01:07:55;;;;;;;10.75;4.75;;;18.50;99.90;;;;;;5031582;28;20049;-72
2022/10/11 01:10:23;;;;;;;15.50;6.30;;;18.40;99.90;;;;;;5051287;28;20108;-71
2022/10/11 01:13:09;;;;;;;13.90;4.93;;;18.40;99.90;;;;;;5016881;28;20450;-69
2022/10/11 01:15:49;;;;;;;11.18;4.70;;;18.40;99.90;;;;;;5050077;28;20077;-69
2022/10/11 01:19:00;;;;;;;11.23;5.40;;;18.40;99.90;;;;;;5019599;28;20139;-70
2022/10/11 01:21:47;;;;;;;13.70;5.50;;;18.40;99.90;;;;;;5052704;28;20128;-68
2022/10/11 01:24:26;;;;;;;7.95;3.92;;;18.40;99.90;;;;;;5053632;28;20056;-69
2022/10/11 01:27:24;;;;;;;13.75;4.63;;;18.40;99.90;;;;;;5053687;28;20490;-66
2022/10/11 01:30:17;;;;;;;8.75;4.88;;;18.40;99.90;;;;;;5037139;28;20041;-68
2022/10/11 01:33:10;;;;;;;13.85;4.93;;;18.40;99.90;;;;;;5080019;28;20452;-69
2022/10/11 01:35:49;;;;;;;10.07;4.78;;;18.40;99.90;;;;;;5148040;27;20488;-69
2022/10/11 01:38:39;;;;;;;9.35;4.25;;;18.40;99.90;;;;;;5126722;27;20383;-76
2022/10/11 01:41:24;;;;;;;11.13;5.32;;;18.40;99.90;;;;;;5106811;27;20535;-68
2022/10/11 01:44:05;;;;;;;8.32;4.60;;;18.50;99.90;;;;;;5106897;27;20356;-68
2022/10/11 01:46:44;;;;;;;7.25;3.30;;;18.50;99.90;;;;;;5106215;27;20430;-68
2022/10/11 01:49:22;;;;;;;6.03;3.67;;;18.40;99.90;;;;;;5106161;27;20437;-68
2022/10/11 01:52:04;;;;;;;7.47;3.72;;;18.50;99.90;;;;;;5147703;27;20377;-68
2022/10/11 01:55:05;;;;;;;9.27;3.97;;;18.50;99.90;;;;;;5106663;27;20426;-68
2022/10/11 01:58:18;;;;;;;5.63;3.47;;;18.60;99.90;;;;;;5066366;28;20379;-68
2022/10/11 02:01:16;;;;;;;9.60;3.40;;;18.70;99.90;;;;;;5147713;27;20381;-69
2022/10/11 02:04:28;;;;;;;6.35;3.30;;;18.70;99.90;;;;;;5106690;27;20437;-68
2022/10/11 02:07:26;;;;;;;8.07;2.90;;;18.80;99.90;;;;;;5106355;27;20456;-69
2022/10/11 02:10:22;;;;;;;9.43;2.85;;;18.80;99.90;;;;;;5106317;27;20437;-68
2022/10/11 02:13:18;;;;;;;4.00;2.17;;;18.80;99.90;;;;;;5147569;27;20373;-68
2022/10/11 02:16:05;;;;;;;4.07;2.58;;;18.80;99.90;;;;;;5106286;27;20429;-68
2022/10/11 02:18:48;;;;;;;4.13;1.98;;;18.70;99.90;;;;;;5107074;27;20372;-69
2022/10/11 02:21:30;;;;;;;4.30;2.05;;;18.70;99.90;;;;;;5105815;27;20805;-68
2022/10/11 02:24:23;;;;;;;2.75;1.88;;;18.60;99.90;;;;;;5106743;27;20441;-70
2022/10/11 02:27:05;;;;;;;2.13;1.42;;;18.60;99.90;;;;;;5147750;27;20373;-68
2022/10/11 02:29:46;;;;;;;2.90;1.77;;;18.70;99.90;;;;;;5066113;28;20375;-69
2022/10/11 02:32:26;;;;;;;2.53;1.50;;;18.70;99.90;;;;;;5104679;27;20469;-69
2022/10/11 02:34:59;;;;;;;22.25;2.38;;;18.60;99.90;;;;;;5106521;28;20044;-68
2022/10/11 02:37:49;;;;;;;2.78;1.48;;;18.60;99.90;;;;;;5091038;27;20466;-70
2022/10/11 02:40:41;;;;;;;2.20;1.58;;;18.50;99.90;;;;;;5106774;27;20425;-71
2022/10/11 02:43:40;;;;;;;3.08;1.55;;;18.50;99.90;;;;;;5065506;28;20853;-67
2022/10/11 02:46:33;;;;;;;3.22;2.03;;;18.40;99.90;;;;;;5106186;27;20123;-70
2022/10/11 02:49:15;;;;;;;2.88;1.55;;;18.50;99.90;;;;;;5105739;27;21213;-68
2022/10/11 02:51:55;;;;;;;2.78;1.92;;;18.40;99.90;;;;;;5106524;27;20365;-67
2022/10/11 02:54:34;;;;;;;2.45;1.88;;;18.40;99.90;;;;;;5106754;27;20380;-69
2022/10/11 02:57:14;;;;;;;3.28;1.52;;;18.40;99.90;;;;;;5081590;28;20391;-69
2022/10/11 02:59:53;;;;;;;3.10;1.98;;;18.40;99.90;;;;;;5106609;27;20457;-70
2022/10/11 03:02:34;;;;;;;2.60;1.60;;;18.40;99.90;;;;;;5075884;27;20432;-68
2022/10/11 03:05:13;;;;;;;6.80;1.92;;;18.40;99.90;;;;;;5106150;27;20765;-68
2022/10/11 03:07:53;;;;;;;5.55;2.03;;;18.40;99.90;;;;;;5065360;28;20721;-69
2022/10/11 03:10:32;;;;;;;3.97;2.00;;;18.40;99.90;;;;;;5106308;27;20383;-70
2022/10/11 03:13:11;;;;;;;3.17;1.70;;;18.40;99.90;;;;;;5065898;28;20421;-68
2022/10/11 03:15:54;;;;;;;3.15;1.60;;;18.40;99.90;;;;;;5065930;28;20820;-69
2022/10/11 03:18:40;;;;;;;3.17;1.80;;;18.40;99.90;;;;;;5106684;27;20137;-69
2022/10/11 03:21:20;;;;;;;3.83;2.10;;;18.30;99.90;;;;;;5168486;27;20387;-68
2022/10/11 03:23:59;;;;;;;3.92;2.08;;;18.40;99.90;;;;;;5106569;27;20440;-68
2022/10/11 03:26:38;;;;;;;3.90;2.28;;;18.30;99.90;;;;;;5091492;27;20467;-69
2022/10/11 03:29:05;;;;;;;4.60;2.38;;;18.30;99.90;;;;;;5047481;28;20049;-74
2022/10/11 03:31:33;;;;;;;3.45;1.60;;;18.30;99.90;;;;;;5064295;28;20033;-68
2022/10/11 03:34:01;;;;;;;2.28;1.40;;;18.30;99.90;;;;;;5064292;28;20080;-68
2022/10/11 03:36:28;;;;;;;4.47;2.38;;;18.40;99.90;;;;;;5047596;28;20048;-68
2022/10/11 03:39:08;;;;;;;6.80;1.70;;;18.40;99.90;;;;;;5106471;27;20448;-68
2022/10/11 03:41:48;;;;;;;5.57;2.22;;;18.40;99.90;;;;;;5147423;27;20389;-70
2022/10/11 03:44:29;;;;;;;3.25;1.92;;;18.30;99.90;;;;;;5106106;27;20421;-69
2022/10/11 03:47:07;;;;;;;3.42;1.90;;;18.40;99.90;;;;;;5105790;27;20808;-68
2022/10/11 03:49:47;;;;;;;5.40;3.13;;;18.40;99.90;;;;;;5106242;27;20862;-71
2022/10/11 03:52:27;;;;;;;4.07;2.28;;;18.40;99.90;;;;;;5106438;27;20388;-68
2022/10/11 03:55:07;;;;;;;6.85;2.67;;;18.40;99.90;;;;;;5081454;28;20387;-69
2022/10/11 03:57:47;;;;;;;5.40;2.53;;;18.30;99.90;;;;;;5065535;28;20379;-72
2022/10/11 04:00:26;;;;;;;4.47;2.28;;;18.30;99.90;;;;;;5065125;28;20388;-68
2022/10/11 04:03:06;;;;;;;4.93;3.05;;;18.30;99.90;;;;;;5105272;27;20845;-68
2022/10/11 04:05:44;;;;;;;6.63;2.90;;;18.30;99.90;;;;;;5106138;27;20449;-70
2022/10/11 04:08:39;;;;;;;4.32;2.45;;;18.20;99.90;;;;;;5106336;27;20376;-68
2022/10/11 04:11:18;;;;;;;4.68;3.33;;;18.20;99.90;;;;;;5147278;27;20386;-70
2022/10/11 04:13:58;;;;;;;6.38;3.70;;;18.20;99.90;;;;;;5106886;27;20445;-69
2022/10/11 04:16:39;;;;;;;12.82;3.63;;;18.20;99.90;;;;;;5043976;28;20391;-68
2022/10/11 04:19:18;;;;;;;5.40;3.30;;;18.20;99.90;;;;;;5065849;28;20892;-70
2022/10/11 04:21:46;;;;;;;5.22;2.88;;;18.20;99.90;;;;;;5065042;28;20103;-68
2022/10/11 04:24:14;;;;;;;8.27;3.60;;;18.10;99.90;;;;;;5032093;28;20102;-68
2022/10/11 04:26:41;;;;;;;5.13;3.63;;;18.20;99.90;;;;;;5032044;28;20475;-68
2022/10/11 04:29:10;;;;;;;4.05;2.97;;;18.10;99.90;;;;;;5031215;28;20061;-69
2022/10/11 04:31:38;;;;;;;4.82;3.63;;;18.10;99.90;;;;;;5031663;28;20197;-68
2022/10/11 04:34:06;;;;;;;3.95;2.85;;;18.10;99.90;;;;;;5047933;28;20487;-71
2022/10/11 04:36:34;;;;;;;4.20;3.03;;;18.20;99.90;;;;;;5030929;28;20064;-70
2022/10/11 04:39:02;;;;;;;4.72;2.88;;;18.10;99.90;;;;;;5030624;28;20525;-70
2022/10/11 04:41:30;;;;;;;6.07;3.00;;;18.10;99.90;;;;;;5047625;28;20072;-67
2022/10/11 04:43:58;;;;;;;9.13;2.88;;;18.10;99.90;;;;;;5047575;28;20136;-68
2022/10/11 04:46:26;;;;;;;4.50;3.28;;;18.10;99.90;;;;;;5030893;28;20351;-68
2022/10/11 04:48:54;;;;;;;5.22;2.88;;;18.10;99.90;;;;;;5031015;28;20665;-68
2022/10/11 04:51:22;;;;;;;7.82;3.28;;;18.10;99.90;;;;;;5030749;28;20048;-70
2022/10/11 04:53:49;;;;;;;5.93;3.30;;;18.10;99.90;;;;;;5047427;28;20120;-68
2022/10/11 04:56:18;;;;;;;5.90;2.90;;;18.10;99.90;;;;;;5080579;28;20118;-69
2022/10/11 04:58:52;;;;;;;4.20;2.60;;;18.10;99.90;;;;;;5047940;28;20045;-71
2022/10/11 05:01:20;;;;;;;3.95;2.60;;;18.10;99.90;;;;;;5047331;28;20122;-71
2022/10/11 05:03:48;;;;;;;7.78;3.95;;;18.10;99.90;;;;;;5047140;28;20070;-69
2022/10/11 05:06:16;;;;;;;22.88;3.08;;;18.00;99.90;;;;;;5058635;28;20107;-69
2022/10/11 05:08:44;;;;;;;4.13;3.17;;;18.00;99.90;;;;;;5014049;28;20049;-68
2022/10/11 05:11:14;;;;;;;8.18;2.40;;;18.10;99.90;;;;;;5043841;28;20065;-68
2022/10/11 05:13:43;;;;;;;4.53;2.85;;;18.10;99.90;;;;;;5027677;28;20357;-67
2022/10/11 05:16:12;;;;;;;4.78;2.50;;;18.10;99.90;;;;;;5060373;28;20480;-71
2022/10/11 05:18:40;;;;;;;5.10;2.42;;;18.20;99.90;;;;;;5044809;28;20057;-68
2022/10/11 05:21:14;;;;;;;5.90;2.35;;;18.30;99.90;;;;;;5043839;28;20061;-69
2022/10/11 05:23:43;;;;;;;4.82;2.95;;;18.40;99.90;;;;;;5060430;28;20041;-70
2022/10/11 05:26:10;;;;;;;5.35;2.45;;;18.60;99.90;;;;;;5060713;28;20407;-68
2022/10/11 05:28:38;;;;;;;4.63;2.60;;;18.70;99.90;;;;;;5042732;28;20065;-71
2022/10/11 05:31:06;;;;;;;4.60;2.42;;;18.80;99.90;;;;;;5031726;28;20038;-69
2022/10/11 05:33:35;;;;;;;4.57;2.28;;;18.90;99.90;;;;;;5047166;28;20395;-68
2022/10/11 05:36:03;;;;;;;5.85;2.30;;;19.00;99.90;;;;;;5046918;28;20207;-72
2022/10/11 05:38:32;;;;;;;4.47;2.17;;;19.20;99.90;;;;;;5046746;28;20051;-69
2022/10/11 05:41:15;;;;;;;3.63;2.38;;;19.30;99.90;;;;;;5085629;28;20385;-68
2022/10/11 05:43:54;;;;;;;7.40;2.58;;;19.50;99.90;;;;;;5107152;27;20796;-69
2022/10/11 05:46:34;;;;;;;5.13;2.53;;;19.70;99.90;;;;;;5066434;28;20395;-71
2022/10/11 05:49:14;;;;;;;3.80;2.10;;;19.90;99.90;;;;;;5106665;27;20429;-68
2022/10/11 05:51:54;;;;;;;6.05;2.42;;;20.00;99.90;;;;;;5107029;27;20392;-68
2022/10/11 05:54:32;;;;;;;4.60;2.33;;;20.20;99.90;;;;;;5046384;28;20455;-69
2022/10/11 05:57:10;;;;;;;4.72;1.95;;;20.40;99.90;;;;;;5107378;27;20392;-69
2022/10/11 05:59:49;;;;;;;3.85;2.00;;;20.60;99.90;;;;;;5107005;27;20380;-68
2022/10/11 06:02:33;;;;;;;6.10;2.13;;;20.80;99.90;;;;;;5086743;27;20408;-68
2022/10/11 06:05:13;;;;;;;3.85;2.03;;;21.00;99.90;;;;;;5103721;27;20396;-67
2022/10/11 06:07:53;;;;;;;3.08;1.58;;;21.00;99.90;;;;;;5102232;27;20400;-71
2022/10/11 06:10:33;;;;;;;11.73;2.03;;;20.90;99.90;;;;;;5066285;28;21271;-68
2022/10/11 06:13:10;;;;;;;3.97;1.67;;;20.80;99.90;;;;;;5075867;27;2119093;-69
2022/10/11 06:16:10;;;;;;;6.50;2.33;;;20.70;99.90;;;;;;5087447;27;20394;-69
2022/10/11 06:19:09;;;;;;;5.15;1.88;;;20.60;99.90;;;;;;5086774;27;20422;-70
2022/10/11 06:22:14;;;;;;;6.22;2.10;;;20.50;99.90;;;;;;5128513;27;20412;-70
2022/10/11 06:25:14;;;;;;;2.78;1.77;;;20.50;99.90;;;;;;5085918;27;20991;-67
2022/10/11 06:28:11;;;;;;;4.47;1.77;;;20.50;99.90;;;;;;5184384;27;20411;-70
2022/10/11 06:31:05;;;;;;;4.55;1.95;;;20.50;99.90;;;;;;5086008;27;20410;-69
2022/10/11 06:33:34;;;;;;;3.60;1.95;;;20.60;99.90;;;;;;5080938;28;20406;-69
2022/10/11 06:36:28;;;;;;;2.75;2.08;;;20.50;99.90;;;;;;5085621;27;20401;-68
2022/10/11 06:39:24;;;;;;;2.47;1.50;;;20.50;99.90;;;;;;5185178;27;20911;-68
2022/10/11 06:42:19;;;;;;;4.38;2.70;;;20.40;99.90;;;;;;5105830;27;20397;-69
2022/10/11 06:45:24;;;;;;;4.97;1.92;;;20.30;99.90;;;;;;5118970;27;20919;-68
2022/10/11 06:48:31;;;;;;;2.40;1.50;;;20.20;99.90;;;;;;5143156;27;20500;-67
2022/10/11 06:51:26;;;;;;;4.47;1.90;;;20.10;99.90;;;;;;5084195;27;21027;-68
2022/10/11 06:54:04;;;;;;;2.45;1.52;;;20.10;99.90;;;;;;4518786;27;17969067;-69
2022/10/11 06:56:59;;;;;;;2.30;1.67;;;20.10;99.90;;;;;;5188720;27;20427;-69
2022/10/11 07:00:01;;;;;;;4.18;1.80;;;20.00;99.90;;;;;;5110833;27;21022;-70
2022/10/11 07:03:00;;;;;;;4.30;2.25;;;20.00;99.90;;;;;;5087861;27;20490;-68
2022/10/11 07:06:04;;;;;;;3.70;1.98;;;20.00;99.90;;;;;;5087280;27;20395;-68
2022/10/11 07:09:00;;;;;;;4.72;2.63;;;20.00;99.90;;;;;;5182130;27;20877;-68
2022/10/11 07:11:52;;;;;;;15.20;2.58;;;20.00;99.90;;;;;;5087793;27;20776;-71
2022/10/11 07:14:48;;;;;;;7.15;2.08;;;20.00;99.90;;;;;;5190742;27;20381;-68
2022/10/11 07:17:41;;;;;;;5.82;2.25;;;20.00;99.90;;;;;;5087992;27;20405;-73
2022/10/11 07:20:39;;;;;;;6.28;2.70;;;20.00;99.90;;;;;;5087904;27;20468;-70
2022/10/11 07:23:35;;;;;;;7.95;2.50;;;20.00;99.90;;;;;;5108958;27;20420;-71
2022/10/11 07:26:34;;;;;;;6.10;2.42;;;20.00;99.90;;;;;;5088410;27;20947;-68
2022/10/11 07:29:31;;;;;;;4.40;2.10;;;20.00;99.90;;;;;;5098236;27;20413;-67
2022/10/11 07:32:27;;;;;;;7.68;2.60;;;20.00;99.90;;;;;;5097484;27;20891;-68
2022/10/11 07:35:38;;;;;;;5.88;2.95;;;20.00;99.90;;;;;;5129278;27;20896;-68
2022/10/11 07:38:43;;;;;;;4.35;2.45;;;19.90;99.90;;;;;;5112513;27;20721;-68
2022/10/11 07:41:51;;;;;;;4.35;2.78;;;20.00;99.90;;;;;;5130753;27;20411;-68
2022/10/11 07:44:55;;;;;;;5.28;2.90;;;20.10;99.90;;;;;;5118193;27;20403;-68
2022/10/11 07:47:33;;;;;;;6.30;3.20;;;20.20;99.90;;;;;;4620930;27;15072113;-68
2022/10/11 07:50:11;;;;;;;;;;;20.20;99.90;;;;;;4505883;27;18692951;-69
2022/10/11 07:53:08;;;;;;;7.32;2.55;;;20.30;99.90;;;;;;5191414;27;20428;-69
2022/10/11 07:56:11;;;;;;;6.43;2.72;;;20.40;99.90;;;;;;5088221;27;20390;-69
2022/10/11 07:59:08;;;;;;;3.75;2.72;;;20.30;99.90;;;;;;5083508;27;20406;-70
2022/10/11 08:02:02;;;;;;;8.63;3.67;;;20.30;99.90;;;;;;5083861;27;20414;-68
2022/10/11 08:04:54;;;;;;;6.45;4.22;;;20.30;99.90;;;;;;5085057;27;20864;-74
2022/10/11 08:07:47;;;;;;;7.68;4.78;;;20.40;99.90;;;;;;5086656;27;20405;-68
2022/10/11 08:10:43;;;;;;;7.38;4.68;;;20.40;99.90;;;;;;5125135;27;20390;-69
2022/10/11 08:13:39;;;;;;;7.35;4.35;;;20.40;99.90;;;;;;5189514;27;20390;-71
2022/10/11 08:16:16;;;;;;;5.25;3.42;;;20.50;99.90;;;;;;4634413;27;15078115;-70
2022/10/11 08:19:13;;;;;;;7.63;3.67;;;20.40;99.90;;;;;;5148018;27;20381;-78
2022/10/11 08:22:19;;;;;;;5.80;3.50;;;20.30;99.90;;;;;;5129529;27;20409;-69
2022/10/11 08:25:21;;;;;;;7.25;4.07;;;20.40;99.90;;;;;;5129725;27;20395;-69
2022/10/11 08:28:23;;;;;;;5.95;3.38;;;20.50;99.90;;;;;;5129507;27;20395;-70
2022/10/11 08:31:22;;;;;;;4.72;3.63;;;20.40;99.90;;;;;;5088219;27;20492;-68
2022/10/11 08:34:19;;;;;;;6.53;3.60;;;20.20;99.90;;;;;;5191668;27;20867;-68
2022/10/11 08:37:11;;;;;;;6.63;3.50;;;20.10;99.90;;;;;;5088746;27;20401;-68
2022/10/11 08:40:05;;;;;;;5.05;3.15;;;20.20;99.90;;;;;;5089011;27;20399;-68
2022/10/11 08:43:14;;;;;;;7.45;3.55;;;20.20;99.90;;;;;;5189278;27;20791;-72
2022/10/11 08:46:24;;;;;;;5.82;4.05;;;20.30;99.90;;;;;;5128952;27;20461;-74
2022/10/11 08:49:26;;;;;;;5.57;3.85;;;20.50;99.90;;;;;;5098528;27;20421;-68
2022/10/11 08:52:30;;;;;;;7.53;3.35;;;20.80;99.90;;;;;;5088136;27;20513;-73
2022/10/11 08:55:41;;;;;;;6.88;3.47;;;20.90;99.90;;;;;;5129914;27;20387;-69
2022/10/11 08:58:50;;;;;;;5.45;2.72;;;20.90;99.90;;;;;;5086881;27;20398;-69
2022/10/11 09:01:51;;;;;;;6.15;3.28;;;21.10;99.90;;;;;;5086991;27;20406;-68
2022/10/11 09:04:31;;;;;;;5.70;3.38;;;21.30;99.90;;;;;;5147798;27;20442;-68
2022/10/11 09:07:33;;;;;;;8.88;3.67;;;21.40;99.90;;;;;;5107196;27;20757;-68
2022/10/11 09:10:27;;;;;;;6.30;3.22;;;21.50;99.90;;;;;;5108056;27;20414;-68
2022/10/11 09:13:34;;;;;;;6.65;3.40;;;21.50;99.90;;;;;;5090739;28;20040;-68
2022/10/11 09:16:08;;;;;;;4.90;2.60;;;21.60;99.90;;;;;;5073111;28;20073;-68
2022/10/11 09:19:09;;;;;;;5.43;3.75;;;21.60;99.90;;;;;;5172033;27;20150;-69
2022/10/11 09:22:00;;;;;;;5.25;3.40;;;21.80;99.90;;;;;;5066547;28;20383;-68
2022/10/11 09:24:54;;;;;;;5.68;3.67;;;21.90;99.90;;;;;;5107525;27;20440;-67
2022/10/11 09:28:04;;;;;;;4.82;3.25;;;22.00;99.90;;;;;;5107135;27;20434;-71
2022/10/11 09:30:32;;;;;;;6.82;3.42;;;22.00;99.90;;;;;;5105791;28;20104;-68
2022/10/11 09:33:16;;;;;;;5.50;3.30;;;22.00;99.90;;;;;;5103118;28;20173;-70
2022/10/11 09:35:50;;;;;;;4.88;4.07;;;21.90;99.90;;;;;;5083487;28;20397;-69
2022/10/11 09:38:25;;;;;;;5.57;3.25;;;21.80;99.90;;;;;;5066346;28;20501;-72
2022/10/11 09:41:02;;;;;;;7.38;3.20;;;21.60;99.90;;;;;;5082967;28;20059;-78
2022/10/11 09:43:30;;;;;;;5.68;4.30;;;21.50;99.90;;;;;;5083227;28;20736;-68
2022/10/11 09:45:58;;;;;;;5.47;3.25;;;21.40;99.90;;;;;;5081441;28;20132;-70
2022/10/11 09:48:53;;;;;;;6.93;3.53;;;21.40;99.90;;;;;;5081733;28;20098;-71
2022/10/11 09:51:25;;;;;;;7.90;3.88;;;21.30;99.90;;;;;;5061144;28;20510;-74
2022/10/11 09:53:52;;;;;;;5.10;3.22;;;21.30;99.90;;;;;;5065064;28;20040;-73
2022/10/11 09:56:22;;;;;;;5.30;3.55;;;21.40;99.90;;;;;;5064639;28;20545;-71
2022/10/11 09:59:25;;;;;;;6.10;3.63;;;21.30;99.90;;;;;;5082624;28;20386;-69
2022/10/11 10:02:18;;;;;;;5.90;3.22;;;21.40;99.90;;;;;;5084575;28;20143;-71
2022/10/11 10:04:58;;;;;;;7.90;3.63;;;21.40;99.90;;;;;;5065414;28;20052;-73
2022/10/11 10:07:28;;;;;;;7.88;3.72;;;21.50;99.90;;;;;;5082525;28;20405;-70
2022/10/11 10:09:57;;;;;;;6.22;3.20;;;21.40;99.90;;;;;;5064664;28;20041;-69
2022/10/11 10:12:29;;;;;;;4.68;3.05;;;21.50;99.90;;;;;;5049345;28;20437;-69
2022/10/11 10:15:16;;;;;;;8.50;3.92;;;21.50;99.90;;;;;;5081729;28;20083;-72
2022/10/11 10:17:50;;;;;;;5.82;3.55;;;21.60;99.90;;;;;;5063446;28;20062;-70
2022/10/11 10:20:31;;;;;;;6.10;2.97;;;21.70;99.90;;;;;;5081355;28;20730;-70
2022/10/11 10:23:23;;;;;;;7.15;3.67;;;21.70;99.90;;;;;;5080482;28;20420;-68
2022/10/11 10:25:53;;;;;;;11.65;4.32;;;21.70;99.90;;;;;;5064854;28;20485;-72
2022/10/11 10:28:24;;;;;;;7.50;3.28;;;21.80;99.90;;;;;;5065941;28;20516;-69
2022/10/11 10:30:56;;;;;;;4.72;2.83;;;21.80;99.90;;;;;;5083027;28;20505;-73
2022/10/11 10:33:32;;;;;;;4.65;2.60;;;21.80;99.90;;;;;;5065624;28;20041;-68
2022/10/11 10:36:05;;;;;;;6.68;2.90;;;21.70;99.90;;;;;;5084656;28;20048;-73
2022/10/11 10:38:36;;;;;;;4.85;3.70;;;21.60;99.90;;;;;;5072101;28;20106;-70
2022/10/11 10:41:10;;;;;;;3.88;3.10;;;21.50;99.90;;;;;;5036533;28;20056;-68
2022/10/11 10:43:40;;;;;;;4.43;2.50;;;21.40;99.90;;;;;;5070109;28;20094;-68
2022/10/11 10:46:34;;;;;;;4.80;2.40;;;21.20;99.90;;;;;;5036084;28;20052;-69
2022/10/11 10:49:13;;;;;;;6.80;2.38;;;21.20;99.90;;;;;;5048128;28;20049;-72
2022/10/11 10:52:26;;;;;;;4.30;2.75;;;21.10;99.90;;;;;;5069587;28;20055;-69
2022/10/11 10:55:14;;;;;;;5.65;2.47;;;21.10;99.90;;;;;;5068789;28;20041;-69
2022/10/11 10:58:19;;;;;;;3.85;2.38;;;21.20;99.90;;;;;;5052471;28;20059;-74
2022/10/11 11:00:57;;;;;;;9.18;3.58;;;21.20;99.90;;;;;;5068324;28;20051;-69
2022/10/11 11:03:59;;;;;;;4.63;2.65;;;21.30;99.90;;;;;;5067808;28;20529;-72
2022/10/11 11:06:41;;;;;;;3.10;2.15;;;21.30;99.90;;;;;;5067813;28;20057;-69
2022/10/11 11:09:31;;;;;;;3.78;2.15;;;21.40;99.90;;;;;;5051298;28;20055;-71
2022/10/11 11:12:02;;;;;;;4.97;2.33;;;21.50;99.90;;;;;;5068314;28;20052;-72
2022/10/11 11:14:39;;;;;;;5.85;2.35;;;21.60;99.90;;;;;;5067670;28;20137;-71
2022/10/11 11:17:19;;;;;;;4.55;2.92;;;21.60;99.90;;;;;;5050339;28;20419;-72
2022/10/11 11:20:05;;;;;;;4.53;2.60;;;21.70;99.90;;;;;;5049900;28;20664;-71
2022/10/11 11:22:51;;;;;;;3.50;2.28;;;21.70;99.90;;;;;;5060944;28;20416;-71
2022/10/11 11:25:38;;;;;;;3.53;2.13;;;21.70;99.90;;;;;;5049870;28;20079;-71
2022/10/11 11:28:18;;;;;;;3.47;2.42;;;21.70;99.90;;;;;;5083835;28;20129;-71
2022/10/11 11:31:07;;;;;;;4.93;1.98;;;21.70;99.90;;;;;;5083894;28;20101;-69
2022/10/11 11:34:11;;;;;;;3.60;2.53;;;21.60;99.90;;;;;;5068762;28;20045;-69
2022/10/11 11:36:45;;;;;;;6.97;2.70;;;21.60;99.90;;;;;;5083973;28;20066;-69
2022/10/11 11:39:23;;;;;;;3.47;2.20;;;21.60;99.90;;;;;;5050642;28;20051;-70
2022/10/11 11:42:04;;;;;;;4.63;1.98;;;21.60;99.90;;;;;;5083790;28;20052;-74
2022/10/11 11:44:33;;;;;;;3.25;2.05;;;21.50;99.90;;;;;;5049947;28;20052;-69
2022/10/11 11:47:22;;;;;;;4.07;2.60;;;21.50;99.90;;;;;;5066897;28;20044;-71
2022/10/11 11:50:02;;;;;;;4.53;1.83;;;21.50;99.90;;;;;;5067570;28;20395;-69
2022/10/11 11:52:39;;;;;;;3.00;2.03;;;21.60;99.90;;;;;;5066447;28;20447;-68
2022/10/11 11:55:31;;;;;;;6.60;2.10;;;21.60;99.90;;;;;;5066770;28;20052;-70
2022/10/11 11:58:26;;;;;;;5.78;2.45;;;21.60;99.90;;;;;;4831428;28;20734;-70
2022/10/11 12:00:58;;;;;;;3.47;2.50;;;21.70;99.90;;;;;;5054824;28;20048;-75
2022/10/11 12:03:54;;;;;;;4.65;2.60;;;21.80;99.90;;;;;;5078428;28;20051;-68
2022/10/11 12:06:31;;;;;;;2.22;1.98;;;21.90;99.90;;;;;;5055192;28;20981;-70
2022/10/11 12:09:17;;;;;;;8.43;2.58;;;22.00;99.90;;;;;;5075510;28;20055;-73
2022/10/11 12:11:55;;;;;;;2.92;1.90;;;22.20;99.90;;;;;;5061978;28;20040;-72
2022/10/11 12:14:26;;;;;;;4.68;2.65;;;22.40;99.90;;;;;;5072281;28;20141;-72
2022/10/11 12:17:10;;;;;;;3.38;2.08;;;22.60;99.90;;;;;;5068116;28;20119;-72
2022/10/11 12:19:41;;;;;;;3.53;2.55;;;22.70;99.90;;;;;;5061066;28;20044;-71
2022/10/11 12:22:27;;;;;;;2.65;1.77;;;22.80;99.90;;;;;;5045834;28;20750;-76
2022/10/11 12:25:21;;;;;;;4.20;2.08;;;22.80;99.90;;;;;;5054657;28;20128;-71
2022/10/11 12:27:50;;;;;;;3.42;2.70;;;22.80;99.90;;;;;;5045714;28;20761;-76
2022/10/11 12:30:46;;;;;;;3.63;1.70;;;22.70;99.90;;;;;;5060640;28;20056;-79
2022/10/11 12:33:21;;;;;;;3.53;2.40;;;22.70;99.90;;;;;;5069346;28;20044;-76
2022/10/11 12:35:52;;;;;;;6.07;2.92;;;22.70;99.90;;;;;;5069901;28;20132;-73
2022/10/11 12:38:22;;;;;;;2.65;1.88;;;22.70;99.90;;;;;;5048692;28;20078;-70
2022/10/11 12:40:59;;;;;;;4.75;2.85;;;22.70;99.90;;;;;;5046800;28;20084;-71
2022/10/11 12:43:30;;;;;;;3.25;2.58;;;22.70;99.90;;;;;;5071006;28;20502;-74
2022/10/11 12:46:26;;;;;;;4.03;2.25;;;22.60;99.90;;;;;;5070846;28;20056;-70
2022/10/11 12:48:57;;;;;;;3.10;2.03;;;22.50;99.90;;;;;;5066863;28;20037;-69
2022/10/11 12:52:05;;;;;;;5.38;1.70;;;22.60;99.90;;;;;;5065249;28;20097;-73
2022/10/11 12:54:48;;;;;;;4.78;2.28;;;22.60;99.90;;;;;;5055355;28;20443;-71
2022/10/11 12:57:38;;;;;;;2.58;1.60;;;22.50;99.90;;;;;;5062557;28;20056;-73
2022/10/11 13:00:26;;;;;;;2.70;1.65;;;22.50;99.90;;;;;;5069159;28;20072;-71
2022/10/11 13:02:59;;;;;;;3.85;2.53;;;22.40;99.90;;;;;;5050482;28;20503;-72
2022/10/11 13:05:45;;;;;;;4.60;2.05;;;22.30;99.90;;;;;;5066395;28;20059;-69
2022/10/11 13:08:30;;;;;;;4.93;2.38;;;22.30;99.90;;;;;;5067641;28;20457;-74
2022/10/11 13:11:02;;;;;;;4.95;1.92;;;22.10;99.90;;;;;;5060214;28;20416;-70
2022/10/11 13:13:54;;;;;;;3.78;1.65;;;22.10;99.90;;;;;;5036613;28;20643;-76
2022/10/11 13:16:29;;;;;;;2.97;1.90;;;22.00;99.90;;;;;;5059358;28;20473;-72
2022/10/11 13:18:58;;;;;;;3.55;2.22;;;22.00;99.90;;;;;;5055963;28;20060;-72
2022/10/11 13:21:34;;;;;;;4.28;2.60;;;21.90;99.90;;;;;;5066556;28;20047;-69
2022/10/11 13:24:11;;;;;;;3.85;2.53;;;21.90;99.90;;;;;;5073459;28;20045;-69
2022/10/11 13:26:40;;;;;;;3.20;1.92;;;21.90;99.90;;;;;;5060061;28;20161;-71
2022/10/11 13:29:30;;;;;;;3.60;2.05;;;21.90;99.90;;;;;;5057941;28;20044;-74
2022/10/11 13:32:00;;;;;;;4.47;1.70;;;21.80;99.90;;;;;;5082847;28;20043;-72
2022/10/11 13:34:31;;;;;;;3.40;1.85;;;21.80;99.90;;;;;;5071295;28;20040;-73
2022/10/11 13:37:03;;;;;;;3.97;1.92;;;21.70;99.90;;;;;;5058801;28;20098;-69
2022/10/11 13:39:36;;;;;;;2.85;2.03;;;21.60;99.90;;;;;;5075037;28;20114;-71
2022/10/11 13:42:09;;;;;;;3.47;2.28;;;21.60;99.90;;;;;;5070754;28;20074;-69
2022/10/11 13:44:38;;;;;;;3.78;2.58;;;21.50;99.90;;;;;;5068775;28;20075;-75
2022/10/11 13:47:19;;;;;;;3.75;2.28;;;21.50;99.90;;;;;;5071555;28;20122;-74
2022/10/11 13:50:29;;;;;;;3.58;2.35;;;21.50;99.90;;;;;;5065446;28;20183;-73
2022/10/11 13:53:11;;;;;;;4.43;2.47;;;21.50;99.90;;;;;;5069803;28;20160;-70
2022/10/11 13:55:43;;;;;;;3.60;2.42;;;21.40;99.90;;;;;;5062615;28;20407;-70
2022/10/11 13:58:34;;;;;;;4.13;2.40;;;21.50;99.90;;;;;;5062761;28;20141;-70
2022/10/11 14:01:05;;;;;;;5.07;2.35;;;21.40;99.90;;;;;;5063017;28;20055;-75
2022/10/11 14:03:56;;;;;;;3.15;2.17;;;21.40;99.90;;;;;;5064129;28;20044;-74